Time;durP1;ratioP1;P1;durP2;ratioP2;P2;SDS_P1;SDS_P2;PMS_P1;PMS_P2;Temp;Humidity;BMP_temperature;BMP_pressure;BME280_temperature;BME280_humidity;BME280_pressure;Samples;Min_cycle;Max_cycle;Signal;HPM_P1;HPM_P2
2023/04/01 00:10:05;;;;;;;3;1.4;;;;;;;10.6;68.7;97000;;;;
2023/04/01 00:20:05;;;;;;;2.8;1.4;;;;;;;10.6;69.1;96990;;;;
2023/04/01 00:30:06;;;;;;;2.8;1.4;;;;;;;10.6;69.3;96990;;;;
2023/04/01 00:41:05;;;;;;;2.8;1.4;;;;;;;10.5;69.7;96970;;;;
2023/04/01 00:52:05;;;;;;;4.3;2.3;;;;;;;10.5;70;96970;;;;
2023/04/01 01:02:06;;;;;;;4.3;2.3;;;;;;;10.4;70.2;96970;;;;
2023/04/01 01:13:05;;;;;;;5.8;2.1;;;;;;;10.3;70.7;96980;;;;
2023/04/01 01:23:05;;;;;;;5.8;2.1;;;;;;;10.3;71.1;96980;;;;
2023/04/01 01:34:06;;;;;;;5.8;2.1;;;;;;;10.3;71.1;96980;;;;
2023/04/01 01:45:05;;;;;;;7.9;4;;;;;;;10.3;71.4;96990;;;;
2023/04/01 01:55:05;;;;;;;7.9;4;;;;;;;10.3;71.4;97000;;;;
2023/04/01 02:05:05;;;;;;;7.9;4;;;;;;;10.3;71.1;96990;;;;
2023/04/01 02:15:05;;;;;;;4.1;2.4;;;;;;;10.2;71.2;97000;;;;
2023/04/01 02:26:05;;;;;;;4.1;2.4;;;;;;;10.2;71.5;97010;;;;
2023/04/01 02:36:06;;;;;;;4.1;2.4;;;;;;;10.1;71.7;97020;;;;
2023/04/01 02:47:05;;;;;;;4;1.6;;;;;;;10.1;71.9;97020;;;;
2023/04/01 02:58:06;;;;;;;4;1.6;;;;;;;10;72.5;97030;;;;
2023/04/01 03:09:05;;;;;;;4;1.6;;;;;;;10.1;72.5;97030;;;;
2023/04/01 03:19:06;;;;;;;3.7;1.5;;;;;;;10.2;72.4;97030;;;;
2023/04/01 03:30:05;;;;;;;3.7;1.5;;;;;;;10.2;72.3;97020;;;;
2023/04/01 03:41:05;;;;;;;3.7;1.5;;;;;;;10.2;72.5;97030;;;;
2023/04/01 03:52:05;;;;;;;5.8;1.8;;;;;;;10.2;72.6;97020;;;;
2023/04/01 04:02:05;;;;;;;5.8;1.8;;;;;;;10.3;72.6;97030;;;;
2023/04/01 04:13:05;;;;;;;5.3;2;;;;;;;10.2;72.7;97030;;;;
2023/04/01 04:23:05;;;;;;;5.3;2;;;;;;;10.3;72.8;97040;;;;
2023/04/01 04:34:05;;;;;;;5.3;2;;;;;;;10.2;73.1;97050;;;;
2023/04/01 04:44:05;;;;;;;5.1;1.7;;;;;;;10.2;73.2;97050;;;;
2023/04/01 04:55:05;;;;;;;5.1;1.7;;;;;;;10.2;73.6;97050;;;;
2023/04/01 05:05:05;;;;;;;5.1;1.7;;;;;;;10.3;73.8;97050;;;;
2023/04/01 05:15:05;;;;;;;3.9;1.6;;;;;;;10.2;74.9;97050;;;;
2023/04/01 05:26:05;;;;;;;3.9;1.6;;;;;;;10.3;75;97050;;;;
2023/04/01 05:36:05;;;;;;;3.9;1.6;;;;;;;10.4;75.2;97050;;;;
2023/04/01 05:46:05;;;;;;;3.5;1.6;;;;;;;10.7;75.2;97060;;;;
2023/04/01 05:57:05;;;;;;;3.5;1.6;;;;;;;11.1;74.3;97050;;;;
2023/04/01 06:08:05;;;;;;;3.5;1.6;;;;;;;11.4;72.8;97050;;;;
2023/04/01 06:18:06;;;;;;;5.6;2;;;;;;;11.6;72.4;97050;;;;
2023/04/01 06:29:05;;;;;;;5.6;2;;;;;;;11.7;72;97050;;;;
2023/04/01 06:40:06;;;;;;;5.6;2;;;;;;;12.2;70.9;97060;;;;
2023/04/01 06:51:05;;;;;;;4.9;2.3;;;;;;;12.3;69.7;97050;;;;
2023/04/01 07:02:05;;;;;;;4.9;2.3;;;;;;;12.2;68.6;97050;;;;
2023/04/01 07:13:05;;;;;;;5.9;2.3;;;;;;;11.8;68.7;97050;;;;
2023/04/01 07:24:05;;;;;;;5.9;2.3;;;;;;;12.3;68.7;97050;;;;
2023/04/01 07:35:05;;;;;;;5.9;2.3;;;;;;;12.6;66.6;97050;;;;
2023/04/01 07:45:05;;;;;;;6.7;2.8;;;;;;;13;66.6;97050;;;;
2023/04/01 07:56:05;;;;;;;6.7;2.8;;;;;;;13;65.6;97060;;;;
2023/04/01 08:06:05;;;;;;;6.7;2.8;;;;;;;12.7;65.1;97060;;;;
2023/04/01 08:16:05;;;;;;;6.7;2.5;;;;;;;13.1;64.6;97070;;;;
2023/04/01 08:27:05;;;;;;;6.7;2.5;;;;;;;13;65.2;97080;;;;
2023/04/01 08:37:05;;;;;;;6.7;2.5;;;;;;;13.5;63.6;97060;;;;
2023/04/01 08:48:08;;;;;;;4.7;2.3;;;;;;;14.1;62.7;97070;;;;
2023/04/01 08:58:06;;;;;;;4.7;2.3;;;;;;;14.2;62;97060;;;;
2023/04/01 09:08:05;;;;;;;4.7;2.3;;;;;;;14.3;62.4;97050;;;;
2023/04/01 09:18:05;;;;;;;5.1;2.3;;;;;;;14.1;61.7;97060;;;;
2023/04/01 09:28:05;;;;;;;5.1;2.3;;;;;;;13.8;62.8;97060;;;;
2023/04/01 09:39:05;;;;;;;5.1;2.3;;;;;;;13.7;63;97050;;;;
2023/04/01 09:49:05;;;;;;;4.4;2.4;;;;;;;13.5;64.3;97070;;;;
2023/04/01 09:59:05;;;;;;;4.4;2.4;;;;;;;13.2;64.6;97080;;;;
2023/04/01 10:10:05;;;;;;;4.4;2.4;;;;;;;13.1;66;97090;;;;
2023/04/01 10:20:06;;;;;;;4.9;2.9;;;;;;;13.1;66.8;97100;;;;
2023/04/01 10:30:05;;;;;;;4.9;2.9;;;;;;;13.1;66;97100;;;;
2023/04/01 10:41:05;;;;;;;4.9;2.9;;;;;;;12.8;66.7;97100;;;;
2023/04/01 10:52:05;;;;;;;4.2;2.5;;;;;;;13.9;65.4;97100;;;;
2023/04/01 11:02:07;;;;;;;4.2;2.5;;;;;;;14.5;63.6;97100;;;;
2023/04/01 11:13:05;;;;;;;4.9;2.5;;;;;;;15.1;61.2;97090;;;;
2023/04/01 11:23:05;;;;;;;4.9;2.5;;;;;;;15.2;60.5;97100;;;;
2023/04/01 11:34:06;;;;;;;4.9;2.5;;;;;;;15.4;59.5;97090;;;;
2023/04/01 11:44:05;;;;;;;5.9;2.5;;;;;;;15;58.2;97090;;;;
2023/04/01 11:54:05;;;;;;;5.9;2.5;;;;;;;13.9;63;97100;;;;
2023/04/01 12:04:05;;;;;;;5.9;2.5;;;;;;;14.2;63.7;97100;;;;
2023/04/01 12:15:05;;;;;;;5.2;2.4;;;;;;;14.3;61;97090;;;;
2023/04/01 12:26:06;;;;;;;5.2;2.4;;;;;;;14.1;63.3;97110;;;;
2023/04/01 12:37:05;;;;;;;5.2;2.4;;;;;;;14.2;63;97120;;;;
2023/04/01 12:47:05;;;;;;;5.1;3;;;;;;;13.9;64.1;97120;;;;
2023/04/01 12:57:05;;;;;;;5.1;3;;;;;;;13.3;68.5;97140;;;;
2023/04/01 13:07:05;;;;;;;5.1;3;;;;;;;13.4;69;97140;;;;
2023/04/01 13:18:05;;;;;;;6.7;4.2;;;;;;;13.4;70.7;97150;;;;
2023/04/01 13:28:05;;;;;;;6.7;4.2;;;;;;;13.6;69.7;97150;;;;
2023/04/01 13:38:05;;;;;;;6.7;4.2;;;;;;;13.3;69.3;97160;;;;
2023/04/01 13:48:06;;;;;;;6.6;3.5;;;;;;;12.6;74.4;97170;;;;
2023/04/01 13:59:05;;;;;;;6.6;3.5;;;;;;;12.9;75.7;97160;;;;
2023/04/01 14:09:06;;;;;;;6.6;3.5;;;;;;;13.1;73.7;97160;;;;
2023/04/01 14:20:05;;;;;;;6.4;4.2;;;;;;;12.8;73.2;97150;;;;
2023/04/01 14:30:06;;;;;;;6.4;4.2;;;;;;;12.7;73.8;97160;;;;
2023/04/01 14:41:05;;;;;;;6.4;4.2;;;;;;;12.8;76.3;97170;;;;
2023/04/01 14:51:06;;;;;;;8;4.7;;;;;;;13.4;75;97160;;;;
2023/04/01 15:02:05;;;;;;;8;4.7;;;;;;;13.3;74.4;97160;;;;
2023/04/01 15:12:05;;;;;;;8.9;6.2;;;;;;;13.7;74.2;97160;;;;
2023/04/01 15:22:05;;;;;;;8.9;6.2;;;;;;;13.5;70.7;97170;;;;
2023/04/01 15:32:05;;;;;;;8.9;6.2;;;;;;;13;70.5;97190;;;;
2023/04/01 15:43:06;;;;;;;7.3;4.5;;;;;;;12.5;72.7;97200;;;;
2023/04/01 15:53:06;;;;;;;7.3;4.5;;;;;;;12.4;74.4;97210;;;;
2023/04/01 16:04:06;;;;;;;7.3;4.5;;;;;;;12.3;75.6;97220;;;;
2023/04/01 16:15:06;;;;;;;7.7;4.5;;;;;;;12.1;77;97230;;;;
2023/04/01 16:26:06;;;;;;;7.7;4.5;;;;;;;11.6;79.4;97250;;;;
2023/04/01 16:37:06;;;;;;;7.7;4.5;;;;;;;11;80.7;97260;;;;
2023/04/01 16:48:06;;;;;;;7.1;4.9;;;;;;;10.8;80.9;97270;;;;
2023/04/01 16:59:06;;;;;;;7.1;4.9;;;;;;;10.5;81.6;97290;;;;
2023/04/01 17:10:06;;;;;;;7.1;4.9;;;;;;;10.5;81.6;97310;;;;
2023/04/01 17:20:06;;;;;;;6.2;3.3;;;;;;;10.4;81.6;97320;;;;
2023/04/01 17:30:06;;;;;;;6.2;3.3;;;;;;;10.3;82.1;97330;;;;
2023/04/01 17:41:06;;;;;;;6.2;3.3;;;;;;;10.3;82;97330;;;;
2023/04/01 17:51:06;;;;;;;7.1;4.9;;;;;;;10.2;82.6;97340;;;;
2023/04/01 18:02:06;;;;;;;7.1;4.9;;;;;;;10.3;82.1;97350;;;;
2023/04/01 18:12:06;;;;;;;10.6;7.3;;;;;;;10.2;82.4;97360;;;;
2023/04/01 18:23:06;;;;;;;10.6;7.3;;;;;;;10.1;82.8;97380;;;;
2023/04/01 18:33:07;;;;;;;10.6;7.3;;;;;;;9.9;83.9;97380;;;;
2023/04/01 18:44:06;;;;;;;10.6;7.2;;;;;;;10;83.6;97400;;;;
2023/04/01 18:54:06;;;;;;;10.6;7.2;;;;;;;9.9;84.1;97400;;;;
2023/04/01 19:05:06;;;;;;;10.6;7.2;;;;;;;9.9;84.2;97410;;;;
2023/04/01 19:15:06;;;;;;;12.5;8.2;;;;;;;9.9;84.5;97420;;;;
2023/04/01 19:26:06;;;;;;;12.5;8.2;;;;;;;9.9;84.9;97430;;;;
2023/04/01 19:37:06;;;;;;;12.5;8.2;;;;;;;9.9;84.7;97450;;;;
2023/04/01 19:48:06;;;;;;;13.8;9.9;;;;;;;9.9;84.8;97460;;;;
2023/04/01 19:58:06;;;;;;;13.8;9.9;;;;;;;9.9;84.9;97470;;;;
2023/04/01 20:09:06;;;;;;;13.8;9.9;;;;;;;9.9;85.1;97480;;;;
2023/04/01 20:19:06;;;;;;;11.8;8.5;;;;;;;9.9;85.2;97490;;;;
2023/04/01 20:29:06;;;;;;;11.8;8.5;;;;;;;9.8;85.7;97500;;;;
2023/04/01 20:39:06;;;;;;;11.8;8.5;;;;;;;9.8;85.9;97510;;;;
2023/04/01 20:49:06;;;;;;;17.3;11.9;;;;;;;9.8;85.8;97510;;;;
2023/04/01 21:00:06;;;;;;;17.3;11.9;;;;;;;9.8;85.8;97520;;;;
2023/04/01 21:11:06;;;;;;;17.3;11.9;;;;;;;9.7;86.2;97530;;;;
2023/04/01 21:22:06;;;;;;;17.1;12.7;;;;;;;9.7;86.2;97530;;;;
2023/04/01 21:32:06;;;;;;;17.1;12.7;;;;;;;9.8;86;97540;;;;
2023/04/01 21:43:06;;;;;;;16.2;11.4;;;;;;;9.8;86;97550;;;;
2023/04/01 21:53:06;;;;;;;16.2;11.4;;;;;;;9.8;86.1;97560;;;;
2023/04/01 22:03:06;;;;;;;16.2;11.4;;;;;;;9.9;85.9;97550;;;;
2023/04/01 22:13:07;;;;;;;16.7;12.8;;;;;;;9.8;85.9;97560;;;;
2023/04/01 22:24:06;;;;;;;16.7;12.8;;;;;;;9.7;86.1;97570;;;;
2023/04/01 22:35:07;;;;;;;16.7;12.8;;;;;;;9.7;86.3;97570;;;;
2023/04/01 22:45:06;;;;;;;18.4;13.3;;;;;;;9.7;86.1;97580;;;;
2023/04/01 22:56:06;;;;;;;18.4;13.3;;;;;;;9.7;86.4;97580;;;;
2023/04/01 23:07:06;;;;;;;18.4;13.3;;;;;;;9.7;86.5;97590;;;;
2023/04/01 23:17:06;;;;;;;;;;;;;;;9.6;86.6;97600;;;;
2023/04/01 23:28:06;;;;;;;17.3;13.6;;;;;;;9.6;86.7;97600;;;;
2023/04/01 23:38:06;;;;;;;17.3;13.6;;;;;;;9.6;86.8;97610;;;;
2023/04/01 23:48:06;;;;;;;17.3;13.6;;;;;;;9.6;86.8;97620;;;;
2023/04/01 23:59:06;;;;;;;20.5;14.5;;;;;;;9.6;87;97620;;;;
